Airfield :
LOGIN :

Register | Disclaimer

   EN    FR    IT 

 










Legend :    VFR   Marginal VFR   IFR   Intensive IFR   Very Intensive IFR
Visi :
Ceiling :
>= 8 km
>= 3000ft
5 to 8 km
1000 to 3000 ft
1500m to 5 km
500 to 1000 ft
800 to 1500m
200 to 500 ft
< 800m
< 200 ft
Symbols :   Thunderstorms  Fog  Heavy snow  Heavy precipitations  Wind > 20 kt
SIGMETs :     Misc.  Thunderstorms  Icing  Turbulence  Mountain Waves  Volcanic Ashes







- Airport Elevation : 416 ft
- IATA code : OVD


LEAS - Asturias

CURRENT METAR :
  • 181800Z 09005KT 060V120 9000 FEW009 BKN052 13/12 Q1003 NOSIG

EXPIRED METARs :
  • 181730Z 08006KT 040V120 7000 FEW009 BKN014 BKN044 13/13 Q1003 NOSIG
  • 181700Z 08004KT 030V120 7000 FEW008 BKN012 BKN026 13/12 Q1003 NOSIG
  • 181630Z 07005KT 030V120 7000 FEW008 BKN012 BKN026 13/12 Q1004 NOSIG
  • 181600Z 07007KT 020V110 7000 FEW006 BKN012 BKN020 13/12 Q1004 NOSIG
  • 181530Z 07008KT 030V110 7000 FEW008 BKN011 BKN017 13/12 Q1004 NOSIG

TAF TAF LEAS
Valid from the 18 at 15:00 until the 19 at 15:00 UTC


181400Z 1815/1915 08010KT 6000 SCT010 TX16/1914Z TN09/1906Z
TEMPO 1815/1909 3000 BR BKN010
PROB40
TEMPO 1815/1824 SHRA RA SCT030TCU
BECMG 1818/1821 14009KT
No reported NOTAMs for that airfield.
2 SIGMETs reported for the Madrid FIR (LECM) :
 
Embedded thunderstorms
LECM SIGMET 9 VALID 181800/182000 LEVA
LECM MADRID FIR/UIR EMBD TS OBS AT 1745Z WI N3751 W00327 - N3549 W00456 - N3546 W002 - N3754 W00132 - N3751 W00327 TOP FL380 MOV NE NC=
Embedded thunderstorms
LECM SIGMET 8 VALID 181600/181800 LEVA
LECM MADRID FIR/UIR EMBD TS OBS AT 1542Z WI N3551 W00552 - N3747 W00501 - N3758 W00136 - N3552 W00201 - N3551 W00552 TOP FL380 MOV NE NC=



MET'MAP, your aeronautical weather chart ! - Copyright ORBIFLY December 2007 - Disclaimer

ORBIFLY MET'MAP TEAM :

Programming & Development : Alexandra Zaïnal
Concept & Development : Baudouin d'Aumeries
Co-Development & Prog : Marc-Olivier Méhu
Technical & hardware support : Manuel Goepfert

Contact : metmap@orbifly.com




SOURCES & CREDITS :

   NOAA